createdAt,value
2018-12-04T00:01:29.376Z,89.57
2018-12-04T00:03:57.611Z,90.60
2018-12-04T00:06:25.785Z,90.51
2018-12-04T00:08:53.926Z,89.93
2018-12-04T00:11:22.117Z,89.50
2018-12-04T00:13:50.413Z,90.01
2018-12-04T00:16:18.596Z,90.36
2018-12-04T00:18:46.835Z,89.48
2018-12-04T00:21:14.998Z,90.37
2018-12-04T00:23:43.194Z,90.34
2018-12-04T00:26:11.345Z,89.88
2018-12-04T00:28:39.689Z,89.85
2018-12-04T00:31:07.880Z,90.26
2018-12-04T00:33:36.053Z,90.63
2018-12-04T00:36:04.372Z,90.86
2018-12-04T00:38:32.514Z,90.18
2018-12-04T00:41:00.717Z,90.05
2018-12-04T00:43:28.849Z,90.51
2018-12-04T00:45:57.006Z,89.70
2018-12-04T00:48:25.316Z,90.16
2018-12-04T00:50:53.646Z,89.45
2018-12-04T00:53:21.876Z,89.33
2018-12-04T00:55:50.058Z,89.57
2018-12-04T00:58:18.258Z,89.68
2018-12-04T01:00:46.605Z,89.91
2018-12-04T01:03:14.753Z,90.06
2018-12-04T01:05:42.884Z,88.75
2018-12-04T01:08:11.099Z,89.79
2018-12-04T01:10:48.438Z,89.90
2018-12-04T01:13:16.652Z,90.06
2018-12-04T01:15:45.024Z,89.91
2018-12-04T01:18:13.230Z,90.18
2018-12-04T01:20:41.516Z,88.84
2018-12-04T01:23:09.871Z,89.24
2018-12-04T01:25:38.117Z,89.08
2018-12-04T01:28:06.315Z,89.61
2018-12-04T01:30:34.440Z,88.94
2018-12-04T01:33:02.718Z,89.31
2018-12-04T01:35:30.872Z,88.82
2018-12-04T01:37:59.078Z,89.21
2018-12-04T01:40:27.745Z,89.50
2018-12-04T01:42:55.969Z,88.10
2018-12-04T01:45:24.675Z,87.60
2018-12-04T01:47:52.818Z,88.18
2018-12-04T01:50:21.010Z,88.13
2018-12-04T01:52:49.249Z,86.98
2018-12-04T01:55:17.434Z,87.17
2018-12-04T01:57:45.552Z,86.85
2018-12-04T02:00:13.781Z,86.78
2018-12-04T02:02:42.025Z,86.80
2018-12-04T02:05:10.220Z,87.72
2018-12-04T02:07:38.428Z,86.73
2018-12-04T02:10:06.683Z,86.81
2018-12-04T02:12:34.956Z,87.29
2018-12-04T02:15:03.320Z,87.19
2018-12-04T02:17:31.520Z,87.22
2018-12-04T02:19:59.684Z,86.51
2018-12-04T02:22:27.894Z,86.50
2018-12-04T02:24:56.053Z,87.08
2018-12-04T02:27:24.354Z,86.91
2018-12-04T02:29:52.544Z,87.32
2018-12-04T02:32:20.712Z,87.32
2018-12-04T02:34:48.854Z,87.69
2018-12-04T02:37:16.971Z,87.27
2018-12-04T02:39:45.219Z,86.82
2018-12-04T02:42:13.364Z,86.73
2018-12-04T02:44:41.509Z,87.28
2018-12-04T02:47:09.615Z,87.75
2018-12-04T02:49:37.903Z,86.41
2018-12-04T02:52:06.103Z,87.82
2018-12-04T02:54:34.392Z,86.94
2018-12-04T02:57:02.590Z,86.91
2018-12-04T02:59:30.852Z,86.21
2018-12-04T03:01:59.180Z,87.95
2018-12-04T03:04:27.325Z,86.78
2018-12-04T03:06:55.513Z,86.08
2018-12-04T03:09:23.700Z,86.43
2018-12-04T03:11:51.984Z,86.27
2018-12-04T03:14:20.117Z,87.35
2018-12-04T03:16:48.288Z,87.62
2018-12-04T03:19:16.551Z,87.03
2018-12-04T03:21:44.664Z,87.17
2018-12-04T03:24:12.898Z,87.45
2018-12-04T03:26:41.213Z,86.87
2018-12-04T03:29:09.446Z,87.44
2018-12-04T03:31:37.713Z,87.74
2018-12-04T03:34:06.005Z,87.72
2018-12-04T03:36:34.232Z,87.32
2018-12-04T03:39:02.368Z,87.68
2018-12-04T03:41:30.528Z,87.42
2018-12-04T03:43:58.684Z,88.11
2018-12-04T03:46:26.960Z,87.78
2018-12-04T03:48:55.203Z,87.95
2018-12-04T03:51:23.495Z,87.86
2018-12-04T03:53:51.651Z,87.92
2018-12-04T03:56:19.829Z,87.92
2018-12-04T03:58:48.164Z,87.38
2018-12-04T04:01:16.404Z,88.52
2018-12-04T04:03:44.536Z,87.84
2018-12-04T04:06:12.662Z,87.12
2018-12-04T04:08:41.194Z,88.00
2018-12-04T04:11:09.330Z,87.94
2018-12-04T04:13:37.483Z,87.70
2018-12-04T04:16:05.792Z,87.04
2018-12-04T04:18:33.982Z,88.13
2018-12-04T04:21:02.256Z,88.24
2018-12-04T04:23:30.402Z,87.29
2018-12-04T04:25:58.777Z,87.29
2018-12-04T04:28:27.076Z,87.35
2018-12-04T04:30:55.277Z,87.69
2018-12-04T04:33:23.417Z,87.01
2018-12-04T04:35:51.629Z,87.18
2018-12-04T04:38:19.912Z,87.64
2018-12-04T04:40:48.041Z,88.46
2018-12-04T04:43:16.224Z,87.59
2018-12-04T04:45:44.373Z,87.87
2018-12-04T04:48:12.530Z,89.52
2018-12-04T04:50:40.742Z,89.53
2018-12-04T04:53:08.939Z,88.74
2018-12-04T04:55:37.156Z,88.87
2018-12-04T04:58:05.364Z,89.49
2018-12-04T05:00:33.582Z,89.81
2018-12-04T05:03:01.808Z,89.59
2018-12-04T05:05:34.252Z,88.83
2018-12-04T05:08:02.456Z,89.95
2018-12-04T05:10:30.614Z,90.49
2018-12-04T05:12:58.739Z,90.30
2018-12-04T05:15:27.265Z,90.08
2018-12-04T05:17:55.537Z,89.32
2018-12-04T05:20:23.825Z,88.97
2018-12-04T05:22:52.061Z,89.18
2018-12-04T05:25:20.285Z,87.30
2018-12-04T05:27:48.544Z,87.82
2018-12-04T05:30:16.767Z,87.41
2018-12-04T05:32:44.999Z,87.29
2018-12-04T05:35:13.215Z,87.10
2018-12-04T05:37:41.443Z,86.97
2018-12-04T05:40:09.655Z,86.91
2018-12-04T05:42:37.966Z,87.73
2018-12-04T05:45:07.002Z,86.89
2018-12-04T05:47:35.226Z,86.46
2018-12-04T05:50:03.644Z,87.49
2018-12-04T05:52:31.935Z,87.60
2018-12-04T05:55:00.176Z,86.63
2018-12-04T05:57:28.358Z,86.35
2018-12-04T05:59:56.542Z,87.01
2018-12-04T06:02:24.886Z,87.11
2018-12-04T06:04:53.072Z,87.68
2018-12-04T06:07:21.308Z,87.58
2018-12-04T06:09:49.638Z,87.67
2018-12-04T06:12:17.818Z,87.24
2018-12-04T06:14:46.075Z,87.65
2018-12-04T06:17:14.426Z,88.32
2018-12-04T06:19:42.637Z,88.11
2018-12-04T06:22:10.772Z,87.69
2018-12-04T06:24:38.980Z,88.08
2018-12-04T06:27:07.207Z,87.22
2018-12-04T06:29:35.381Z,87.38
2018-12-04T06:32:03.592Z,86.43
2018-12-04T06:34:31.743Z,86.26
2018-12-04T06:36:59.992Z,85.69
2018-12-04T06:39:28.232Z,86.12
2018-12-04T06:41:56.545Z,86.01
2018-12-04T06:44:24.669Z,85.25
2018-12-04T06:46:52.881Z,85.67
2018-12-04T06:49:21.114Z,85.61
2018-12-04T06:51:49.387Z,86.05
2018-12-04T06:54:17.605Z,85.43
2018-12-04T06:56:45.751Z,84.94
2018-12-04T06:59:13.957Z,86.46
2018-12-04T07:01:42.145Z,86.58
2018-12-04T07:04:10.384Z,84.80
2018-12-04T07:06:38.564Z,84.89
2018-12-04T07:09:07.927Z,84.30
2018-12-04T07:11:36.114Z,84.66
2018-12-04T07:14:04.428Z,84.13
2018-12-04T07:16:32.630Z,84.25
2018-12-04T07:19:00.892Z,84.90
2018-12-04T07:21:29.136Z,84.37
2018-12-04T07:23:57.296Z,83.44
2018-12-04T07:26:25.519Z,84.62
2018-12-04T07:28:53.664Z,84.87
2018-12-04T07:31:21.911Z,83.86
2018-12-04T07:33:50.150Z,83.91
2018-12-04T07:36:18.453Z,83.23
2018-12-04T07:38:46.671Z,83.21
2018-12-04T07:41:14.820Z,83.10
2018-12-04T07:43:43.036Z,83.89
2018-12-04T07:46:11.367Z,84.28
2018-12-04T07:48:39.503Z,84.44
2018-12-04T07:51:07.734Z,84.77
2018-12-04T07:53:35.924Z,84.32
2018-12-04T07:56:04.088Z,84.37
2018-12-04T07:58:32.247Z,85.53
2018-12-04T08:01:00.391Z,85.55
2018-12-04T08:03:28.530Z,86.61
2018-12-04T08:05:56.824Z,84.82
2018-12-04T08:08:25.455Z,85.36
2018-12-04T08:10:53.600Z,85.84
2018-12-04T08:13:21.884Z,85.21
2018-12-04T08:15:50.037Z,84.10
2018-12-04T08:18:18.216Z,84.73
2018-12-04T08:20:46.482Z,83.91
2018-12-04T08:23:14.613Z,84.50
2018-12-04T08:25:42.739Z,84.45
2018-12-04T08:28:10.982Z,84.71
2018-12-04T08:30:39.089Z,83.59
2018-12-04T08:33:07.260Z,85.00
2018-12-04T08:35:35.413Z,84.29
2018-12-04T08:38:03.636Z,83.91
2018-12-04T08:40:31.828Z,83.18
2018-12-04T08:43:00.037Z,82.14
2018-12-04T08:45:28.277Z,82.70
2018-12-04T08:47:59.370Z,82.02
2018-12-04T08:50:27.592Z,81.20
2018-12-04T08:52:55.810Z,81.18
2018-12-04T08:55:24.009Z,81.17
2018-12-04T08:57:52.152Z,81.10
2018-12-04T09:00:20.472Z,81.66
2018-12-04T09:02:48.756Z,80.63
2018-12-04T09:05:17.041Z,79.59
2018-12-04T09:07:45.404Z,80.02
2018-12-04T09:10:13.695Z,79.95
2018-12-04T09:12:41.824Z,80.04
2018-12-04T09:15:10.109Z,80.24
2018-12-04T09:17:38.227Z,79.12
2018-12-04T09:20:07.810Z,79.02
2018-12-04T09:22:36.025Z,78.19
2018-12-04T09:25:04.721Z,78.12
2018-12-04T09:27:33.164Z,76.51
2018-12-04T09:30:01.423Z,77.19
2018-12-04T09:32:29.637Z,79.03
2018-12-04T09:34:57.751Z,77.24
2018-12-04T09:37:25.967Z,77.35
2018-12-04T09:39:54.270Z,77.22
2018-12-04T09:42:22.532Z,77.27
2018-12-04T09:44:50.660Z,78.37
2018-12-04T09:47:19.200Z,78.29
2018-12-04T09:49:47.495Z,76.84
2018-12-04T09:52:15.761Z,77.62
2018-12-04T09:54:44.025Z,77.03
2018-12-04T09:57:12.175Z,79.06
2018-12-04T09:59:40.318Z,78.13
2018-12-04T10:02:08.433Z,75.51
2018-12-04T10:04:36.577Z,75.52
2018-12-04T10:07:04.895Z,74.48
2018-12-04T10:09:33.023Z,74.33
2018-12-04T10:12:01.190Z,72.63
2018-12-04T10:14:29.424Z,73.67
2018-12-04T10:16:57.548Z,73.42
2018-12-04T10:19:25.811Z,72.65
2018-12-04T10:21:53.964Z,72.92
2018-12-04T10:24:22.097Z,73.52
2018-12-04T10:26:55.507Z,71.67
2018-12-04T10:29:23.791Z,72.73
2018-12-04T10:31:55.945Z,72.55
2018-12-04T10:34:22.160Z,72.70
2018-12-04T10:36:50.364Z,73.01
2018-12-04T10:39:18.605Z,70.67
2018-12-04T10:41:46.936Z,70.51
2018-12-04T10:44:15.064Z,69.60
2018-12-04T10:46:43.288Z,67.76
2018-12-04T10:49:11.538Z,67.72
2018-12-04T10:51:39.732Z,66.88
2018-12-04T10:54:08.024Z,66.34
2018-12-04T10:56:36.210Z,66.36
2018-12-04T10:59:04.408Z,67.68
2018-12-04T11:01:37.900Z,66.11
2018-12-04T11:04:06.181Z,67.34
2018-12-04T11:06:34.372Z,67.24
2018-12-04T11:09:02.639Z,67.81
2018-12-04T11:11:30.781Z,66.67
2018-12-04T11:13:58.923Z,66.30
2018-12-04T11:16:27.220Z,66.46
2018-12-04T11:18:55.508Z,66.03
2018-12-04T11:21:23.749Z,66.00
2018-12-04T11:23:51.888Z,66.96
2018-12-04T11:26:20.041Z,66.29
2018-12-04T11:28:54.788Z,67.34
2018-12-04T11:31:23.009Z,68.33
2018-12-04T11:33:51.140Z,68.30
2018-12-04T11:36:19.736Z,67.38
2018-12-04T11:38:47.900Z,67.44
2018-12-04T11:41:16.011Z,67.91
2018-12-04T11:43:44.131Z,67.39
2018-12-04T11:46:12.449Z,67.08
2018-12-04T11:48:40.701Z,67.03
2018-12-04T11:51:08.908Z,67.53
2018-12-04T11:53:37.036Z,66.41
2018-12-04T11:56:05.315Z,67.15
2018-12-04T11:58:33.513Z,67.12
2018-12-04T12:01:01.875Z,67.27
2018-12-04T12:03:29.985Z,66.09
2018-12-04T12:05:58.149Z,67.37
2018-12-04T12:08:26.301Z,66.17
2018-12-04T12:10:54.519Z,65.28
2018-12-04T12:13:22.683Z,64.79
2018-12-04T12:15:50.906Z,65.42
2018-12-04T12:18:19.041Z,64.60
2018-12-04T12:20:47.237Z,63.82
2018-12-04T12:23:15.454Z,64.63
2018-12-04T12:25:44.685Z,64.79
2018-12-04T12:28:12.984Z,64.75
2018-12-04T12:30:41.273Z,64.73
2018-12-04T12:33:09.386Z,65.18
2018-12-04T12:35:37.525Z,65.49
2018-12-04T12:38:05.709Z,65.05
2018-12-04T12:40:33.865Z,66.28
2018-12-04T12:43:02.149Z,66.21
2018-12-04T12:45:30.485Z,66.70
2018-12-04T12:47:58.642Z,66.91
2018-12-04T12:50:26.756Z,66.80
2018-12-04T12:52:55.568Z,67.74
2018-12-04T12:55:23.709Z,67.75
2018-12-04T12:57:52.100Z,67.79
2018-12-04T13:00:20.572Z,68.29
2018-12-04T13:02:48.730Z,67.53
2018-12-04T13:05:16.981Z,68.26
2018-12-04T13:07:45.115Z,69.06
2018-12-04T13:10:13.347Z,68.06
2018-12-04T13:12:41.604Z,67.93
2018-12-04T13:15:09.779Z,66.99
2018-12-04T13:17:37.924Z,67.36
2018-12-04T13:20:07.063Z,65.50
2018-12-04T13:22:35.278Z,65.47
2018-12-04T13:25:03.478Z,64.45
2018-12-04T13:27:31.735Z,63.09
2018-12-04T13:29:59.978Z,63.58
2018-12-04T13:32:28.121Z,62.69
2018-12-04T13:34:56.341Z,62.57
2018-12-04T13:37:24.632Z,62.58
2018-12-04T13:39:53.821Z,62.72
2018-12-04T13:42:22.006Z,62.74
2018-12-04T13:44:50.267Z,62.62
2018-12-04T13:47:18.483Z,62.80
2018-12-04T13:49:46.691Z,62.98
2018-12-04T13:52:14.828Z,63.48
2018-12-04T13:54:43.012Z,63.73
2018-12-04T13:57:11.287Z,62.13
2018-12-04T13:59:39.504Z,63.23
2018-12-04T14:02:07.917Z,62.29
2018-12-04T14:04:36.314Z,62.92
2018-12-04T14:07:05.141Z,63.52
2018-12-04T14:09:33.339Z,62.08
2018-12-04T14:12:01.569Z,63.49
2018-12-04T14:14:29.828Z,62.45
2018-12-04T14:16:58.133Z,63.26
2018-12-04T14:19:26.276Z,64.17
2018-12-04T14:21:54.432Z,62.62
2018-12-04T14:24:22.605Z,64.13
2018-12-04T14:26:51.045Z,64.36
2018-12-04T14:29:19.202Z,64.88
2018-12-04T14:31:47.431Z,64.42
2018-12-04T14:34:15.618Z,64.93
2018-12-04T14:36:43.842Z,66.10
2018-12-04T14:39:12.143Z,65.58
2018-12-04T14:41:40.344Z,65.72
2018-12-04T14:44:08.609Z,66.61
2018-12-04T14:46:42.227Z,66.58
2018-12-04T14:49:10.384Z,66.54
2018-12-04T14:51:38.732Z,67.56
2018-12-04T14:54:07.056Z,68.24
2018-12-04T14:56:35.266Z,68.86
2018-12-04T14:59:03.625Z,67.88
2018-12-04T15:01:32.025Z,67.40
2018-12-04T15:04:00.246Z,68.23
2018-12-04T15:06:28.455Z,68.06
2018-12-04T15:09:02.981Z,67.61
2018-12-04T15:11:31.229Z,68.07
2018-12-04T15:13:59.493Z,68.15
2018-12-04T15:16:27.881Z,68.69
2018-12-04T15:18:56.100Z,68.67
2018-12-04T15:21:24.448Z,68.21
2018-12-04T15:23:52.874Z,68.52
2018-12-04T15:26:21.004Z,69.18
2018-12-04T15:28:49.138Z,67.93
2018-12-04T15:31:17.356Z,68.62
2018-12-04T15:33:45.597Z,68.42
2018-12-04T15:36:13.863Z,69.29
2018-12-04T15:38:42.060Z,70.27
2018-12-04T15:41:10.336Z,68.63
2018-12-04T15:43:38.568Z,68.99
2018-12-04T15:46:06.777Z,69.23
2018-12-04T15:48:34.971Z,69.65
2018-12-04T15:51:03.269Z,69.60
2018-12-04T15:53:31.607Z,70.14
2018-12-04T15:55:59.925Z,72.53
2018-12-04T15:58:28.155Z,73.95
2018-12-04T16:00:56.284Z,76.19
2018-12-04T16:03:24.424Z,75.35
2018-12-04T16:05:52.577Z,75.15
2018-12-04T16:08:20.902Z,77.46
2018-12-04T16:10:49.034Z,76.11
2018-12-04T16:13:17.246Z,75.04
2018-12-04T16:15:45.463Z,76.46
2018-12-04T16:18:13.638Z,75.80
2018-12-04T16:20:41.794Z,75.52
2018-12-04T16:23:10.024Z,76.19
2018-12-04T16:28:28.333Z,76.69
2018-12-04T16:30:56.458Z,76.74
2018-12-04T16:33:24.682Z,77.10
2018-12-04T16:35:52.809Z,76.66
2018-12-04T16:38:20.948Z,77.55
2018-12-04T16:40:49.243Z,79.25
2018-12-04T16:43:17.493Z,78.61
2018-12-04T16:45:45.705Z,78.66
2018-12-04T16:48:13.836Z,79.30
2018-12-04T16:50:42.079Z,79.51
2018-12-04T16:53:10.417Z,78.24
2018-12-04T16:55:38.645Z,79.40
2018-12-04T16:58:06.936Z,80.52
2018-12-04T17:00:35.086Z,79.87
2018-12-04T17:03:03.400Z,80.65
2018-12-04T17:05:31.581Z,80.95
2018-12-04T17:07:59.852Z,80.73
2018-12-04T17:10:28.005Z,81.18
2018-12-04T17:12:56.401Z,81.53
2018-12-04T17:15:24.799Z,80.26
2018-12-04T17:17:53.035Z,80.71
2018-12-04T17:20:21.571Z,79.06
2018-12-04T17:22:49.951Z,80.19
2018-12-04T17:25:18.085Z,79.93
2018-12-04T17:27:46.309Z,80.93
2018-12-04T17:30:14.749Z,79.82
2018-12-04T17:32:43.284Z,80.42
2018-12-04T17:35:11.775Z,80.17
2018-12-04T17:37:40.117Z,79.84
2018-12-04T17:40:08.722Z,79.74
2018-12-04T17:42:36.859Z,79.35
2018-12-04T17:45:05.700Z,79.43
2018-12-04T17:47:33.871Z,80.19
2018-12-04T17:50:02.088Z,80.00
2018-12-04T17:52:30.478Z,80.78
2018-12-04T17:54:58.764Z,81.44
2018-12-04T17:57:27.336Z,80.83
2018-12-04T17:59:55.662Z,80.61
2018-12-04T18:02:23.861Z,81.03
2018-12-04T18:04:52.209Z,80.61
2018-12-04T18:07:21.038Z,80.83
2018-12-04T18:09:49.369Z,81.20
2018-12-04T18:12:17.551Z,80.72
2018-12-04T18:14:45.695Z,80.72
2018-12-04T18:17:13.927Z,81.52
2018-12-04T18:19:42.151Z,80.84
2018-12-04T18:22:10.320Z,82.55
2018-12-04T18:24:38.529Z,81.35
2018-12-04T18:27:06.652Z,82.19
2018-12-04T18:29:36.270Z,82.38
2018-12-04T18:32:04.548Z,81.54
2018-12-04T18:34:32.839Z,81.92
2018-12-04T18:37:01.165Z,80.69
2018-12-04T18:39:29.508Z,81.29
2018-12-04T18:41:57.640Z,81.71
2018-12-04T18:44:25.986Z,81.62
2018-12-04T18:46:54.285Z,81.83
2018-12-04T18:49:22.546Z,80.94
2018-12-04T18:51:50.861Z,81.67
2018-12-04T18:54:19.088Z,81.51
2018-12-04T18:56:47.357Z,82.29
2018-12-04T18:59:15.676Z,81.62
2018-12-04T19:01:43.921Z,81.08
2018-12-04T19:04:12.138Z,81.19
2018-12-04T19:06:40.433Z,81.69
2018-12-04T19:09:09.025Z,80.82
2018-12-04T19:11:38.836Z,80.46
2018-12-04T19:14:07.274Z,80.23
2018-12-04T19:16:35.460Z,80.31
2018-12-04T19:19:03.759Z,80.75
2018-12-04T19:27:15.653Z,81.08
2018-12-04T19:29:43.831Z,82.70
2018-12-04T19:32:12.113Z,82.26
2018-12-04T19:34:40.437Z,81.08
2018-12-04T19:37:08.654Z,82.65
2018-12-04T19:39:36.869Z,83.03
2018-12-04T19:42:05.119Z,82.12
2018-12-04T19:44:35.139Z,83.88
2018-12-04T19:47:03.700Z,83.79
2018-12-04T19:49:33.131Z,83.29
2018-12-04T19:52:01.314Z,82.32
2018-12-04T19:54:29.940Z,82.79
2018-12-04T19:56:58.605Z,83.66
2018-12-04T19:59:26.989Z,83.03
2018-12-04T20:01:55.541Z,82.25
2018-12-04T20:05:49.227Z,83.25
2018-12-04T20:08:17.541Z,83.84
2018-12-04T20:10:45.773Z,83.76
2018-12-04T20:13:14.054Z,82.64
2018-12-04T20:15:42.257Z,83.59
2018-12-04T20:18:10.780Z,83.22
2018-12-04T20:20:38.998Z,81.86
2018-12-04T20:23:07.157Z,82.44
2018-12-04T20:25:35.409Z,82.48
2018-12-04T20:28:10.110Z,83.58
2018-12-04T20:30:38.361Z,83.89
2018-12-04T20:33:06.604Z,82.54
2018-12-04T20:35:34.863Z,83.51
2018-12-04T20:38:03.210Z,82.67
2018-12-04T20:40:31.992Z,82.29
2018-12-04T20:43:00.456Z,83.01
2018-12-04T20:45:28.662Z,82.65
2018-12-04T20:47:56.847Z,82.67
2018-12-04T20:50:25.227Z,83.25
2018-12-04T20:52:53.572Z,82.46
2018-12-04T20:55:21.735Z,83.34
2018-12-04T20:57:50.102Z,82.87
2018-12-04T21:00:18.388Z,82.85
2018-12-04T21:02:46.559Z,82.73
2018-12-04T21:05:14.784Z,82.77
2018-12-04T21:07:43.038Z,83.77
2018-12-04T21:10:11.212Z,83.37
2018-12-04T21:12:39.491Z,82.93
2018-12-04T21:15:07.835Z,83.44
2018-12-04T21:17:36.011Z,84.13
2018-12-04T21:20:04.517Z,83.33
2018-12-04T21:22:32.825Z,82.52
2018-12-04T21:25:01.004Z,83.37
2018-12-04T21:27:34.627Z,83.75
2018-12-04T21:30:08.448Z,83.13
2018-12-04T21:32:41.991Z,84.18
2018-12-04T21:35:15.739Z,83.28
2018-12-04T21:37:49.229Z,83.13
2018-12-04T21:40:22.999Z,84.11
2018-12-04T21:42:56.598Z,83.91
2018-12-04T21:45:30.165Z,84.02
2018-12-04T21:48:02.711Z,84.21
2018-12-04T21:50:31.004Z,84.64
2018-12-04T21:52:59.209Z,84.25
2018-12-04T21:55:27.592Z,83.99
2018-12-04T21:57:55.750Z,85.01
2018-12-04T22:00:24.064Z,84.56
2018-12-04T22:02:52.349Z,84.23
2018-12-04T22:05:20.648Z,84.52
2018-12-04T22:07:48.831Z,83.95
2018-12-04T22:10:17.206Z,83.97
2018-12-04T22:12:45.630Z,84.08
2018-12-04T22:15:13.976Z,83.67
2018-12-04T22:17:42.153Z,83.98
2018-12-04T22:20:10.160Z,83.54
2018-12-04T22:22:38.481Z,83.16
2018-12-04T22:25:06.758Z,83.88
2018-12-04T22:27:34.984Z,83.29
2018-12-04T22:30:03.532Z,84.37
2018-12-04T22:32:31.751Z,84.94
2018-12-04T22:34:59.938Z,84.42
2018-12-04T22:37:28.075Z,84.15
2018-12-04T22:39:56.250Z,84.56
2018-12-04T22:42:24.510Z,83.78
2018-12-04T22:44:54.804Z,83.95
2018-12-04T22:47:23.078Z,84.31
2018-12-04T22:49:51.288Z,85.37
2018-12-04T22:52:19.557Z,85.93
2018-12-04T22:55:03.476Z,86.21
2018-12-04T22:57:39.794Z,86.64
2018-12-04T23:00:26.547Z,86.34
2018-12-04T23:02:55.721Z,86.88
2018-12-04T23:05:24.110Z,86.22
2018-12-04T23:07:52.360Z,85.84
2018-12-04T23:10:20.542Z,85.58
2018-12-04T23:12:48.733Z,85.79
2018-12-04T23:15:16.976Z,85.19
2018-12-04T23:17:45.224Z,85.17
2018-12-04T23:20:13.570Z,84.96
2018-12-04T23:22:41.758Z,86.05
2018-12-04T23:25:10.197Z,85.69
2018-12-04T23:27:38.414Z,85.45
2018-12-04T23:30:06.851Z,85.87
2018-12-04T23:32:35.002Z,85.58
2018-12-04T23:35:03.399Z,85.13
2018-12-04T23:37:31.699Z,85.99
2018-12-04T23:40:00.001Z,85.31
2018-12-04T23:42:28.141Z,84.78
2018-12-04T23:44:56.485Z,86.19
2018-12-04T23:47:24.865Z,85.98
2018-12-04T23:49:53.131Z,86.65
2018-12-04T23:52:21.298Z,85.82
2018-12-04T23:54:49.480Z,86.39
2018-12-04T23:57:17.619Z,86.99
2018-12-04T23:59:45.850Z,87.22
